Time;durP1;ratioP1;P1;durP2;ratioP2;P2;SDS_P1;SDS_P2;PMS_P1;PMS_P2;Temp;Humidity;BMP_temperature;BMP_pressure;BME280_temperature;BME280_humidity;BME280_pressure;Samples;Min_cycle;Max_cycle;Signal;HPM_P1;HPM_P2
2021/08/02 00:00:28;;;;;;;16.23;4.22;;;12.00;99.90;;;;;;6244114;22;20026;-83
2021/08/02 00:03:09;;;;;;;5.97;3.28;;;12.00;99.90;;;;;;6218895;22;20475;-83
2021/08/02 00:05:38;;;;;;;10.27;3.72;;;12.00;99.90;;;;;;6272400;22;20522;-83
2021/08/02 00:08:04;;;;;;;6.22;3.85;;;12.10;99.90;;;;;;6219219;22;20015;-83
2021/08/02 00:10:33;;;;;;;8.52;3.70;;;12.10;99.90;;;;;;6219663;22;20016;-84
2021/08/02 00:13:03;;;;;;;15.73;3.72;;;12.10;99.90;;;;;;6219000;22;20038;-83
2021/08/02 00:15:30;;;;;;;12.27;4.05;;;12.10;99.90;;;;;;6258845;22;20090;-83
2021/08/02 00:17:56;;;;;;;11.63;3.97;;;12.10;99.90;;;;;;6258026;22;20015;-83
2021/08/02 00:20:29;;;;;;;11.43;3.97;;;12.20;99.90;;;;;;6218231;22;20039;-84
2021/08/02 00:22:58;;;;;;;8.77;4.38;;;12.20;99.90;;;;;;6218645;22;20071;-84
2021/08/02 00:25:24;;;;;;;6.82;4.00;;;12.20;99.90;;;;;;6243993;22;20095;-84
2021/08/02 00:27:52;;;;;;;8.43;4.00;;;12.20;99.90;;;;;;6219417;22;20007;-84
2021/08/02 00:30:18;;;;;;;7.70;4.13;;;12.20;99.90;;;;;;6219381;22;20015;-84
2021/08/02 00:32:44;;;;;;;8.25;4.10;;;12.20;99.90;;;;;;6220844;22;20094;-84
2021/08/02 00:35:10;;;;;;;14.45;4.20;;;12.20;99.90;;;;;;6221038;22;20506;-84
2021/08/02 00:37:54;;;;;;;10.93;4.30;;;12.20;99.90;;;;;;6220673;22;20035;-84
2021/08/02 00:41:09;;;;;;;9.98;4.10;;;12.30;99.90;;;;;;6272610;22;20012;-84
2021/08/02 00:43:54;;;;;;;;;;;12.30;99.90;;;;;;6154468;23;20327;-84
2021/08/02 00:46:25;;;;;;;12.38;3.92;;;12.30;99.90;;;;;;6154321;23;19912;-84
2021/08/02 00:49:01;;;;;;;7.82;3.95;;;12.20;99.90;;;;;;6220385;22;20020;-84
2021/08/02 00:51:31;;;;;;;9.00;4.05;;;12.30;99.90;;;;;;6245883;22;20061;-84
2021/08/02 00:54:00;;;;;;;7.18;3.72;;;12.30;99.90;;;;;;6246482;22;20459;-85
2021/08/02 00:56:31;;;;;;;16.55;4.10;;;12.30;99.90;;;;;;6246080;22;20448;-84
2021/08/02 00:59:04;;;;;;;8.35;3.72;;;12.40;99.90;;;;;;6245727;22;20014;-84
2021/08/02 01:01:34;;;;;;;10.15;4.13;;;12.30;99.90;;;;;;6246085;22;20094;-84
2021/08/02 01:04:01;;;;;;;8.10;4.10;;;12.40;99.90;;;;;;6221735;22;20015;-85
2021/08/02 01:06:31;;;;;;;9.68;4.00;;;12.40;99.90;;;;;;6282563;22;20012;-84
2021/08/02 01:09:01;;;;;;;14.50;4.07;;;12.40;99.90;;;;;;6273280;22;20039;-84
2021/08/02 01:11:28;;;;;;;6.88;4.00;;;12.40;99.90;;;;;;6256258;22;20016;-84
2021/08/02 01:13:57;;;;;;;13.55;4.05;;;12.40;99.90;;;;;;6220609;22;20448;-84
2021/08/02 01:16:25;;;;;;;8.48;4.35;;;12.40;99.90;;;;;;6220647;22;20004;-84
2021/08/02 01:18:52;;;;;;;11.38;3.40;;;12.40;99.90;;;;;;6245445;22;20043;-84
2021/08/02 01:21:20;;;;;;;9.45;4.15;;;12.40;99.90;;;;;;6245822;22;20433;-84
2021/08/02 01:23:50;;;;;;;11.45;4.25;;;12.40;99.90;;;;;;6272318;22;20012;-84
2021/08/02 01:26:57;;;;;;;10.82;4.15;;;12.40;99.90;;;;;;6220272;22;20015;-83
2021/08/02 01:30:00;;;;;;;7.53;3.60;;;12.50;99.90;;;;;;6177988;23;20061;-83
2021/08/02 01:32:27;;;;;;;8.25;3.70;;;12.40;99.90;;;;;;6254283;22;20011;-84
2021/08/02 01:34:53;;;;;;;10.65;3.78;;;12.40;99.90;;;;;;6220677;22;20008;-84
2021/08/02 01:37:18;;;;;;;11.90;4.10;;;12.50;99.90;;;;;;6219628;22;20495;-84
2021/08/02 01:39:55;;;;;;;7.35;3.65;;;12.50;99.90;;;;;;6245903;22;20066;-84
2021/08/02 01:42:21;;;;;;;9.07;3.85;;;12.50;99.90;;;;;;6219395;22;20011;-84
2021/08/02 01:44:47;;;;;;;7.05;3.50;;;12.50;99.90;;;;;;6245801;22;20012;-84
2021/08/02 01:47:36;;;;;;;12.32;3.90;;;12.50;99.90;;;;;;6245006;22;20014;-84
2021/08/02 01:50:29;;;;;;;6.60;3.47;;;12.50;99.90;;;;;;6245245;22;20012;-83
2021/08/02 01:53:21;;;;;;;10.88;4.05;;;12.60;99.90;;;;;;6218014;22;20011;-83
2021/08/02 01:56:23;;;;;;;10.52;4.10;;;12.50;99.90;;;;;;6245202;22;20011;-83
2021/08/02 01:59:00;;;;;;;10.57;3.88;;;12.60;99.90;;;;;;6168507;22;20019;-83
2021/08/02 02:01:28;;;;;;;9.57;3.83;;;12.50;99.90;;;;;;6245130;22;20038;-83
2021/08/02 02:03:57;;;;;;;15.60;4.25;;;12.50;99.90;;;;;;6219134;22;20015;-82
2021/08/02 02:06:30;;;;;;;13.40;3.95;;;12.60;99.90;;;;;;6194756;22;20037;-83
2021/08/02 02:09:07;;;;;;;9.65;3.75;;;12.60;99.90;;;;;;6244310;22;20016;-83
2021/08/02 02:11:37;;;;;;;11.63;4.05;;;12.60;99.90;;;;;;6219514;22;20016;-83
2021/08/02 02:14:05;;;;;;;8.00;4.10;;;12.60;99.90;;;;;;6244946;22;20133;-84
2021/08/02 02:16:32;;;;;;;10.82;3.92;;;12.60;99.90;;;;;;6244955;22;20038;-83
2021/08/02 02:19:03;;;;;;;9.45;3.38;;;12.60;99.90;;;;;;6218637;22;20012;-84
2021/08/02 02:21:31;;;;;;;15.98;3.90;;;12.60;99.90;;;;;;6271638;22;20012;-84
2021/08/02 02:23:58;;;;;;;6.63;3.42;;;12.60;99.90;;;;;;6220176;22;20031;-83
2021/08/02 02:26:27;;;;;;;8.68;3.15;;;12.60;99.90;;;;;;6219448;22;20023;-84
2021/08/02 02:28:55;;;;;;;9.27;3.67;;;12.60;99.90;;;;;;6245067;22;20011;-84
2021/08/02 02:31:23;;;;;;;9.13;3.72;;;12.60;99.90;;;;;;6245020;22;20053;-83
2021/08/02 02:33:50;;;;;;;13.65;4.00;;;12.60;99.90;;;;;;6244281;22;20079;-84
2021/08/02 02:36:17;;;;;;;9.65;4.60;;;12.60;99.90;;;;;;6220047;22;20018;-84
2021/08/02 02:38:44;;;;;;;12.50;4.88;;;12.60;99.90;;;;;;6234415;22;20023;-84
2021/08/02 02:41:10;;;;;;;10.48;4.15;;;12.60;99.90;;;;;;6257278;22;20069;-82
2021/08/02 02:43:37;;;;;;;9.55;3.70;;;12.60;99.90;;;;;;6193523;22;20152;-82
2021/08/02 02:46:03;;;;;;;13.23;4.18;;;12.60;99.90;;;;;;6219541;22;20037;-82
2021/08/02 02:48:30;;;;;;;10.13;4.50;;;12.60;99.90;;;;;;6243533;22;20031;-82
2021/08/02 02:50:57;;;;;;;7.88;4.57;;;12.60;99.90;;;;;;6244628;22;20098;-82
2021/08/02 02:53:25;;;;;;;8.55;4.15;;;12.50;99.90;;;;;;6243950;22;20094;-83
2021/08/02 02:55:52;;;;;;;8.88;3.65;;;12.50;99.90;;;;;;6219976;22;20012;-84
2021/08/02 02:58:18;;;;;;;11.88;4.78;;;12.50;99.90;;;;;;6219812;22;20015;-83
2021/08/02 03:00:47;;;;;;;13.77;4.25;;;12.50;99.90;;;;;;6244972;22;20011;-83
2021/08/02 03:03:18;;;;;;;12.55;4.43;;;12.50;99.90;;;;;;6244599;22;20012;-84
2021/08/02 03:05:44;;;;;;;7.47;4.13;;;12.50;99.90;;;;;;6244831;22;20128;-84
2021/08/02 03:08:14;;;;;;;10.07;4.32;;;12.50;99.90;;;;;;6219245;22;20394;-84
2021/08/02 03:10:42;;;;;;;7.97;4.28;;;12.50;99.90;;;;;;6219618;22;20106;-83
2021/08/02 03:13:08;;;;;;;10.88;4.38;;;12.50;99.90;;;;;;6219253;22;20353;-83
2021/08/02 03:15:34;;;;;;;11.00;4.18;;;12.40;99.90;;;;;;6218799;22;20020;-83
2021/08/02 03:18:00;;;;;;;12.95;4.80;;;12.40;99.90;;;;;;6219201;22;20019;-84
2021/08/02 03:20:25;;;;;;;11.13;4.30;;;12.40;99.90;;;;;;6219498;22;20046;-84
2021/08/02 03:23:04;;;;;;;9.55;4.50;;;12.40;99.90;;;;;;6219418;22;20097;-83
2021/08/02 03:25:55;;;;;;;10.82;4.53;;;12.40;99.90;;;;;;6254806;22;20018;-84
2021/08/02 03:28:31;;;;;;;9.85;4.13;;;12.40;99.90;;;;;;6259251;22;20031;-83
2021/08/02 03:31:00;;;;;;;14.35;4.35;;;12.40;99.90;;;;;;6244507;22;20065;-83
2021/08/02 03:33:32;;;;;;;9.75;3.95;;;12.40;99.90;;;;;;6271204;22;20034;-83
2021/08/02 03:36:03;;;;;;;9.70;4.13;;;12.30;99.90;;;;;;6254719;22;20087;-84
2021/08/02 03:38:31;;;;;;;10.38;3.92;;;12.40;99.90;;;;;;6254194;22;20093;-83
2021/08/02 03:40:58;;;;;;;11.18;4.00;;;12.30;99.90;;;;;;6218891;22;20035;-83
2021/08/02 03:43:25;;;;;;;12.65;4.55;;;12.30;99.90;;;;;;6218849;22;20076;-83
2021/08/02 03:45:52;;;;;;;11.38;4.07;;;12.30;99.90;;;;;;6219409;22;20008;-84
2021/08/02 03:48:20;;;;;;;13.98;4.30;;;12.30;99.90;;;;;;6219453;22;20012;-83
2021/08/02 03:50:46;;;;;;;9.18;4.05;;;12.30;99.90;;;;;;6219134;22;20154;-83
2021/08/02 03:53:12;;;;;;;10.98;4.20;;;12.30;99.90;;;;;;6219255;22;20019;-83
2021/08/02 03:55:43;;;;;;;12.02;4.13;;;12.30;99.90;;;;;;6219513;22;20479;-83
2021/08/02 03:58:10;;;;;;;7.85;4.47;;;12.30;99.90;;;;;;6271292;22;20035;-83
2021/08/02 04:00:36;;;;;;;7.63;3.90;;;12.30;99.90;;;;;;6270787;22;20015;-83
2021/08/02 04:03:04;;;;;;;11.23;4.15;;;12.30;99.90;;;;;;6243942;22;20012;-83
2021/08/02 04:05:30;;;;;;;12.23;4.40;;;12.30;99.90;;;;;;6243795;22;20019;-83
2021/08/02 04:07:58;;;;;;;8.73;4.10;;;12.30;99.90;;;;;;6244246;22;20012;-83
2021/08/02 04:10:27;;;;;;;16.98;4.50;;;12.30;99.90;;;;;;6244586;22;20023;-85
2021/08/02 04:12:54;;;;;;;8.27;4.30;;;12.30;99.90;;;;;;6271316;22;20039;-83
2021/08/02 04:15:20;;;;;;;18.77;4.00;;;12.30;99.90;;;;;;6219727;22;20069;-83
2021/08/02 04:17:46;;;;;;;16.58;4.85;;;12.30;99.90;;;;;;6247256;22;20375;-84
2021/08/02 04:20:14;;;;;;;14.07;4.75;;;12.30;99.90;;;;;;6244647;22;20523;-83
2021/08/02 04:22:40;;;;;;;10.60;4.05;;;12.30;99.90;;;;;;6219666;22;20012;-83
2021/08/02 04:25:08;;;;;;;10.43;4.68;;;12.30;99.90;;;;;;6219922;22;20073;-83
2021/08/02 04:27:33;;;;;;;7.78;4.88;;;12.30;99.90;;;;;;6219463;22;20031;-85
2021/08/02 04:29:59;;;;;;;10.05;4.47;;;12.30;99.90;;;;;;6219307;22;20008;-84
2021/08/02 04:32:25;;;;;;;12.27;5.28;;;12.30;99.90;;;;;;6244365;22;20062;-84
2021/08/02 04:34:51;;;;;;;10.20;4.68;;;12.30;99.90;;;;;;6219256;22;20087;-84
2021/08/02 04:37:17;;;;;;;11.55;4.57;;;12.30;99.90;;;;;;6244054;22;20367;-84
2021/08/02 04:39:42;;;;;;;10.25;5.32;;;12.30;99.90;;;;;;6218389;22;20012;-84
2021/08/02 04:42:08;;;;;;;13.68;4.55;;;12.30;99.90;;;;;;6244422;22;20065;-84
2021/08/02 04:44:34;;;;;;;8.57;3.85;;;12.30;99.90;;;;;;6218766;22;20008;-84
2021/08/02 04:47:00;;;;;;;11.32;5.22;;;12.30;99.90;;;;;;6218752;22;20706;-85
2021/08/02 04:49:26;;;;;;;11.82;4.80;;;12.30;99.90;;;;;;6218977;22;20043;-84
2021/08/02 04:51:52;;;;;;;11.85;4.40;;;12.30;99.90;;;;;;6244322;22;20008;-84
2021/08/02 04:54:17;;;;;;;9.82;4.18;;;12.30;99.90;;;;;;6244302;22;20031;-83
2021/08/02 04:56:43;;;;;;;10.80;4.75;;;12.30;99.90;;;;;;6244270;22;20016;-83
2021/08/02 04:59:09;;;;;;;8.05;4.38;;;12.30;99.90;;;;;;6218611;22;20030;-84
2021/08/02 05:01:35;;;;;;;12.30;4.40;;;12.30;99.90;;;;;;6218295;22;20012;-84
2021/08/02 05:04:01;;;;;;;9.95;4.32;;;12.30;99.90;;;;;;6243350;22;20012;-84
2021/08/02 05:06:27;;;;;;;13.27;4.63;;;12.30;99.90;;;;;;6218738;22;20012;-83
2021/08/02 05:08:52;;;;;;;14.60;4.43;;;12.30;99.90;;;;;;6218694;22;20107;-83
2021/08/02 05:11:18;;;;;;;13.07;4.28;;;12.30;99.90;;;;;;6219026;22;20008;-83
2021/08/02 05:13:44;;;;;;;14.40;4.80;;;12.30;99.90;;;;;;6218614;22;20022;-84
2021/08/02 05:16:10;;;;;;;9.98;5.28;;;12.30;99.90;;;;;;6271979;22;20075;-83
2021/08/02 05:18:36;;;;;;;14.13;4.80;;;12.30;99.90;;;;;;6247315;22;20090;-84
2021/08/02 05:21:02;;;;;;;16.90;4.50;;;12.30;99.90;;;;;;6221273;22;20594;-84
2021/08/02 05:23:28;;;;;;;11.05;4.55;;;12.30;99.90;;;;;;6221327;22;20012;-83
2021/08/02 05:25:54;;;;;;;10.82;4.43;;;12.30;99.90;;;;;;6246843;22;20015;-83
2021/08/02 05:28:20;;;;;;;11.18;4.40;;;12.40;99.90;;;;;;6222837;22;20085;-83
2021/08/02 05:30:47;;;;;;;10.52;3.97;;;12.50;99.90;;;;;;6247993;22;20018;-83
2021/08/02 05:33:13;;;;;;;9.63;3.80;;;12.50;99.90;;;;;;6220120;22;20012;-84
2021/08/02 05:35:39;;;;;;;10.90;3.63;;;12.60;99.90;;;;;;6245819;22;20008;-84
2021/08/02 05:38:05;;;;;;;14.18;4.28;;;12.80;99.90;;;;;;6221050;22;20012;-84
2021/08/02 05:40:32;;;;;;;10.07;3.50;;;12.80;99.90;;;;;;6220205;22;20061;-84
2021/08/02 05:42:58;;;;;;;14.88;3.90;;;12.90;99.90;;;;;;6220424;22;20352;-84
2021/08/02 05:45:25;;;;;;;9.90;3.47;;;13.00;99.90;;;;;;6220316;22;20011;-83
2021/08/02 05:47:52;;;;;;;9.20;3.30;;;13.00;99.90;;;;;;6245985;22;20448;-84
2021/08/02 05:50:19;;;;;;;9.48;3.30;;;13.00;99.90;;;;;;6245037;22;20083;-84
2021/08/02 05:52:45;;;;;;;10.68;3.08;;;13.00;99.90;;;;;;6220242;22;20107;-84
2021/08/02 05:55:13;;;;;;;8.27;3.45;;;13.10;99.90;;;;;;6220276;22;20445;-84
2021/08/02 05:57:39;;;;;;;12.75;3.30;;;13.10;99.90;;;;;;6245522;22;20022;-83
2021/08/02 06:00:06;;;;;;;10.15;3.40;;;13.20;99.90;;;;;;6219941;22;20340;-85
2021/08/02 06:02:32;;;;;;;10.40;3.00;;;13.20;99.90;;;;;;6245195;22;20007;-84
2021/08/02 06:04:58;;;;;;;8.07;2.45;;;13.30;99.90;;;;;;6220806;22;20035;-83
2021/08/02 06:07:24;;;;;;;6.93;2.58;;;13.30;99.90;;;;;;6220630;22;20011;-84
2021/08/02 06:09:51;;;;;;;11.13;3.15;;;13.40;99.90;;;;;;6220194;22;20016;-84
2021/08/02 06:12:28;;;;;;;13.48;3.22;;;13.40;99.90;;;;;;6200085;22;20023;-84
2021/08/02 06:14:59;;;;;;;9.15;2.80;;;13.50;99.90;;;;;;6221994;22;20094;-84
2021/08/02 06:17:25;;;;;;;11.73;3.45;;;13.50;99.90;;;;;;6219850;22;20471;-84
2021/08/02 06:19:51;;;;;;;8.23;3.40;;;13.60;99.90;;;;;;6218710;22;20031;-84
2021/08/02 06:22:17;;;;;;;9.98;3.33;;;13.60;99.90;;;;;;6219801;22;20379;-84
2021/08/02 06:24:43;;;;;;;10.85;2.72;;;13.70;99.90;;;;;;6219699;22;20127;-84
2021/08/02 06:27:09;;;;;;;12.50;3.22;;;13.80;99.90;;;;;;6220034;22;20109;-83
2021/08/02 06:29:35;;;;;;;9.85;2.80;;;13.80;99.90;;;;;;6218006;22;20466;-83
2021/08/02 06:32:01;;;;;;;10.90;2.83;;;13.90;99.90;;;;;;6219884;22;20007;-84
2021/08/02 06:34:40;;;;;;;9.55;3.08;;;14.00;99.90;;;;;;6247973;22;20086;-84
2021/08/02 06:37:06;;;;;;;9.20;2.88;;;14.00;99.90;;;;;;6219576;22;20409;-84
2021/08/02 06:39:33;;;;;;;13.55;2.53;;;14.10;99.90;;;;;;6194226;22;20011;-84
2021/08/02 06:41:59;;;;;;;10.93;2.63;;;14.20;99.90;;;;;;6219770;22;20388;-84
2021/08/02 06:44:25;;;;;;;10.48;2.30;;;14.30;99.90;;;;;;6219155;22;20341;-84
2021/08/02 06:46:51;;;;;;;9.15;2.50;;;14.40;99.90;;;;;;6194636;22;20011;-84
2021/08/02 06:49:16;;;;;;;11.90;2.60;;;14.40;99.90;;;;;;6219903;22;20020;-85
2021/08/02 06:51:42;;;;;;;9.35;2.25;;;14.50;99.90;;;;;;6227953;22;19996;-84
2021/08/02 06:54:08;;;;;;;13.20;2.72;;;14.60;99.90;;;;;;6242295;22;20020;-85
2021/08/02 06:56:34;;;;;;;10.23;2.35;;;14.70;99.90;;;;;;6230934;22;20016;-85
2021/08/02 06:59:00;;;;;;;9.52;2.45;;;14.80;99.90;;;;;;6218868;22;20008;-84
2021/08/02 07:01:25;;;;;;;12.45;2.70;;;14.90;99.90;;;;;;6219385;22;20019;-85
2021/08/02 07:03:51;;;;;;;9.30;1.98;;;15.00;99.90;;;;;;6218519;22;20007;-84
2021/08/02 07:06:17;;;;;;;10.88;2.13;;;15.10;99.90;;;;;;6219417;22;20344;-84
2021/08/02 07:08:43;;;;;;;12.65;2.40;;;15.20;99.90;;;;;;6193417;22;20343;-84
2021/08/02 07:11:08;;;;;;;7.53;2.50;;;15.30;99.90;;;;;;6219002;22;20498;-84
2021/08/02 07:13:34;;;;;;;9.35;2.28;;;15.40;99.90;;;;;;6218747;22;20368;-84
2021/08/02 07:16:01;;;;;;;6.88;1.88;;;15.50;99.90;;;;;;6219521;22;20029;-85
2021/08/02 07:18:34;;;;;;;13.45;2.17;;;15.60;99.90;;;;;;6219134;22;20019;-85
2021/08/02 07:21:01;;;;;;;11.25;2.15;;;15.70;99.90;;;;;;6218931;22;20443;-85
2021/08/02 07:23:27;;;;;;;9.15;1.88;;;15.90;99.90;;;;;;6271060;22;20007;-86
2021/08/02 07:25:53;;;;;;;8.52;1.60;;;15.90;99.90;;;;;;6219410;22;20013;-84
2021/08/02 07:28:19;;;;;;;6.63;1.42;;;16.10;99.90;;;;;;6218726;22;20425;-84
2021/08/02 07:30:44;;;;;;;9.82;1.38;;;16.10;99.90;;;;;;6237954;22;20015;-84
2021/08/02 07:33:10;;;;;;;13.23;1.90;;;16.20;99.90;;;;;;6262860;22;20012;-85
2021/08/02 07:35:36;;;;;;;7.93;1.52;;;16.10;99.90;;;;;;6220907;22;20329;-82
2021/08/02 07:38:02;;;;;;;10.80;2.70;;;16.10;99.90;;;;;;6218474;22;20460;-84
2021/08/02 07:40:28;;;;;;;12.13;1.90;;;16.00;99.90;;;;;;6218194;22;20095;-85
2021/08/02 07:42:54;;;;;;;9.23;1.65;;;16.00;99.90;;;;;;6218621;22;20015;-84
2021/08/02 07:45:19;;;;;;;7.35;1.50;;;16.00;99.90;;;;;;6218947;22;20012;-84
2021/08/02 07:47:45;;;;;;;6.15;1.38;;;16.10;99.90;;;;;;6219084;22;20012;-83
2021/08/02 07:50:12;;;;;;;8.85;2.17;;;16.10;99.90;;;;;;6243902;22;20314;-85
2021/08/02 07:52:39;;;;;;;8.90;1.63;;;16.20;99.90;;;;;;6243607;22;20011;-85
2021/08/02 07:55:05;;;;;;;9.27;1.80;;;16.20;99.90;;;;;;6219040;22;20157;-84
2021/08/02 07:57:32;;;;;;;9.90;1.30;;;16.10;99.90;;;;;;6193300;22;20012;-85
2021/08/02 08:00:01;;;;;;;6.78;1.67;;;16.10;99.90;;;;;;6218198;22;20015;-84
2021/08/02 08:02:27;;;;;;;4.25;1.73;;;16.00;99.90;;;;;;6218394;22;20012;-83
2021/08/02 08:04:53;;;;;;;5.78;1.52;;;15.90;99.90;;;;;;6193055;22;20062;-84
2021/08/02 08:07:18;;;;;;;7.15;1.95;;;15.80;99.90;;;;;;6244016;22;20022;-84
2021/08/02 08:09:44;;;;;;;8.55;1.52;;;15.80;99.90;;;;;;6217905;22;20081;-84
2021/08/02 08:12:10;;;;;;;7.20;1.65;;;15.70;99.90;;;;;;6218706;22;20007;-83
2021/08/02 08:14:36;;;;;;;11.73;2.05;;;15.70;99.90;;;;;;6218148;22;20012;-85
2021/08/02 08:17:03;;;;;;;8.50;2.22;;;15.60;99.90;;;;;;6244076;22;20016;-84
2021/08/02 08:19:29;;;;;;;30.33;4.47;;;15.70;99.90;;;;;;6218306;22;20019;-84
2021/08/02 08:21:54;;;;;;;7.15;1.95;;;15.80;99.90;;;;;;6243906;22;20008;-86
2021/08/02 08:24:20;;;;;;;7.07;1.60;;;16.00;99.90;;;;;;6234885;22;20248;-83
2021/08/02 08:26:46;;;;;;;8.02;1.60;;;16.10;99.90;;;;;;6238815;22;20004;-84
2021/08/02 08:29:12;;;;;;;6.30;1.60;;;16.20;99.90;;;;;;6223664;22;20034;-85
2021/08/02 08:31:38;;;;;;;9.23;1.52;;;16.20;99.90;;;;;;6193715;22;20012;-86
2021/08/02 08:34:03;;;;;;;6.75;1.55;;;16.20;99.90;;;;;;6218819;22;20344;-84
2021/08/02 08:36:31;;;;;;;5.65;1.67;;;16.30;99.90;;;;;;6193607;22;20046;-84
2021/08/02 08:38:56;;;;;;;6.70;1.50;;;16.30;99.90;;;;;;6243382;22;20091;-85
2021/08/02 08:41:22;;;;;;;7.40;1.55;;;16.30;99.90;;;;;;6218918;22;20062;-86
2021/08/02 08:43:53;;;;;;;7.05;1.48;;;16.30;99.90;;;;;;6244302;22;20015;-86
2021/08/02 08:46:23;;;;;;;7.57;1.17;;;16.30;99.90;;;;;;6244516;22;20034;-85
2021/08/02 08:48:51;;;;;;;5.63;1.30;;;16.30;99.90;;;;;;6270947;22;20093;-86
2021/08/02 08:51:17;;;;;;;5.25;1.40;;;16.40;99.90;;;;;;6245086;22;20011;-85
2021/08/02 08:53:44;;;;;;;6.00;1.23;;;16.40;99.80;;;;;;6221297;22;20012;-85
2021/08/02 08:56:11;;;;;;;6.47;1.50;;;16.40;99.90;;;;;;6221435;22;20008;-82
2021/08/02 08:58:37;;;;;;;6.70;1.60;;;16.40;99.90;;;;;;6196077;22;20102;-84
2021/08/02 09:01:05;;;;;;;8.40;1.70;;;16.30;99.90;;;;;;6221163;22;20016;-84
2021/08/02 09:03:31;;;;;;;8.07;1.30;;;16.40;99.90;;;;;;6222974;22;20012;-85
2021/08/02 09:06:05;;;;;;;4.82;1.17;;;16.50;99.90;;;;;;6245105;22;20011;-85
2021/08/02 09:08:42;;;;;;;7.18;1.50;;;16.60;99.80;;;;;;6220718;22;20511;-85
2021/08/02 09:11:09;;;;;;;5.18;1.60;;;16.70;99.70;;;;;;6272669;22;20016;-85
2021/08/02 09:13:36;;;;;;;7.38;1.15;;;16.80;99.50;;;;;;6220281;22;20027;-86
2021/08/02 09:16:13;;;;;;;7.07;1.30;;;16.90;99.20;;;;;;6272920;22;20057;-85
2021/08/02 09:18:40;;;;;;;5.50;1.00;;;16.90;99.20;;;;;;6246576;22;20380;-84
2021/08/02 09:21:07;;;;;;;6.68;1.42;;;17.00;99.00;;;;;;6220530;22;20054;-84
2021/08/02 09:23:33;;;;;;;6.90;1.40;;;17.00;98.90;;;;;;6273702;22;20050;-84
2021/08/02 09:26:01;;;;;;;10.13;1.40;;;17.00;99.30;;;;;;6222415;22;20011;-85
2021/08/02 09:28:28;;;;;;;5.95;1.38;;;17.10;99.20;;;;;;6246669;22;20354;-84
2021/08/02 09:31:03;;;;;;;6.63;1.20;;;17.10;98.90;;;;;;6220631;22;20039;-85
2021/08/02 09:33:46;;;;;;;5.80;1.30;;;17.10;98.70;;;;;;6246190;22;20011;-86
2021/08/02 09:36:13;;;;;;;6.07;1.10;;;17.20;99.00;;;;;;6255695;22;20008;-85
2021/08/02 09:38:39;;;;;;;6.35;1.40;;;17.20;98.30;;;;;;6220999;22;20054;-85
2021/08/02 09:41:05;;;;;;;5.15;1.20;;;17.30;98.30;;;;;;6221268;22;20008;-85
2021/08/02 09:43:33;;;;;;;5.03;1.17;;;17.30;98.00;;;;;;6245955;22;20445;-84
2021/08/02 09:46:02;;;;;;;3.28;0.90;;;17.30;98.20;;;;;;6195868;22;20460;-85
2021/08/02 09:48:42;;;;;;;3.42;1.15;;;17.20;98.00;;;;;;6273026;22;20026;-84
2021/08/02 09:51:16;;;;;;;8.90;1.80;;;17.20;97.60;;;;;;6246450;22;20011;-85
2021/08/02 09:53:47;;;;;;;6.13;1.52;;;17.20;97.70;;;;;;6246959;22;20701;-84
2021/08/02 09:56:15;;;;;;;6.80;1.45;;;17.10;97.70;;;;;;6220955;22;20321;-85
2021/08/02 09:58:43;;;;;;;10.43;1.50;;;17.10;97.60;;;;;;6245881;22;20016;-84
2021/08/02 10:01:19;;;;;;;7.10;1.52;;;17.10;97.80;;;;;;6272971;22;20011;-85
2021/08/02 10:03:45;;;;;;;7.47;1.30;;;17.20;97.60;;;;;;6244798;22;20463;-84
2021/08/02 10:06:13;;;;;;;4.47;1.00;;;17.20;97.40;;;;;;6230284;22;20041;-86
2021/08/02 10:08:39;;;;;;;7.18;1.60;;;17.30;96.70;;;;;;6220143;22;20039;-86
2021/08/02 10:11:06;;;;;;;8.35;1.30;;;17.40;96.40;;;;;;6245496;22;20008;-85
2021/08/02 10:13:35;;;;;;;6.88;1.33;;;17.50;96.30;;;;;;6245920;22;20019;-87
2021/08/02 10:16:05;;;;;;;3.53;1.10;;;17.50;96.30;;;;;;6249916;22;20008;-86
2021/08/02 10:18:31;;;;;;;6.70;1.30;;;17.60;96.20;;;;;;6245940;22;20055;-85
2021/08/02 10:21:07;;;;;;;3.75;1.08;;;17.70;96.30;;;;;;6246341;22;20083;-82
2021/08/02 10:23:34;;;;;;;3.42;1.20;;;17.70;96.00;;;;;;6245379;22;20043;-81
2021/08/02 10:26:00;;;;;;;2.65;1.02;;;17.70;95.70;;;;;;6272742;22;20012;-83
2021/08/02 10:28:26;;;;;;;4.30;1.10;;;17.40;95.10;;;;;;6245569;22;20007;-82
2021/08/02 10:31:06;;;;;;;7.22;1.75;;;17.30;95.10;;;;;;6220723;22;20449;-83
2021/08/02 10:33:37;;;;;;;7.72;1.00;;;17.00;95.10;;;;;;6250312;22;20430;-81
2021/08/02 10:36:18;;;;;;;3.70;1.00;;;16.80;95.40;;;;;;6254965;22;20068;-83
2021/08/02 10:38:47;;;;;;;4.68;1.10;;;16.60;95.30;;;;;;6272014;22;20306;-83
2021/08/02 10:41:33;;;;;;;3.28;0.90;;;16.50;95.90;;;;;;6219169;22;20491;-83
2021/08/02 10:44:20;;;;;;;3.85;0.90;;;16.40;96.30;;;;;;6272416;22;20003;-84
2021/08/02 10:46:47;;;;;;;3.90;1.05;;;16.40;96.50;;;;;;6224350;22;20018;-84
2021/08/02 10:49:16;;;;;;;3.90;1.25;;;16.30;96.80;;;;;;6194891;22;20015;-83
2021/08/02 10:51:55;;;;;;;3.30;0.95;;;16.30;97.10;;;;;;6219492;22;20460;-83
2021/08/02 10:54:22;;;;;;;4.72;1.23;;;16.20;97.40;;;;;;6220063;22;20042;-83
2021/08/02 10:56:48;;;;;;;5.45;1.50;;;16.30;97.70;;;;;;6272253;22;20014;-83
2021/08/02 10:59:19;;;;;;;4.70;1.20;;;16.40;97.80;;;;;;6220184;22;20019;-84
2021/08/02 11:01:53;;;;;;;4.78;1.17;;;16.40;98.10;;;;;;6244567;22;20404;-84
2021/08/02 11:04:21;;;;;;;4.88;1.33;;;16.50;98.50;;;;;;6244470;22;20008;-84
2021/08/02 11:06:49;;;;;;;6.13;1.13;;;16.60;98.50;;;;;;6220724;22;20358;-83
2021/08/02 11:09:26;;;;;;;3.85;1.35;;;16.60;98.40;;;;;;6247299;22;20326;-84
2021/08/02 11:12:06;;;;;;;3.38;1.10;;;16.70;98.30;;;;;;6260409;22;20011;-84
2021/08/02 11:14:32;;;;;;;6.35;1.38;;;16.80;98.70;;;;;;6221753;22;20011;-84
2021/08/02 11:16:58;;;;;;;2.90;0.95;;;16.90;98.70;;;;;;6247908;22;20011;-84
2021/08/02 11:19:29;;;;;;;6.55;1.35;;;17.00;98.30;;;;;;6221562;22;20415;-83
2021/08/02 11:21:55;;;;;;;4.70;1.20;;;17.00;98.10;;;;;;6246591;22;20015;-84
2021/08/02 11:24:21;;;;;;;7.47;1.30;;;17.20;98.00;;;;;;6246674;22;20457;-84
2021/08/02 11:26:54;;;;;;;5.70;1.20;;;17.20;98.30;;;;;;6221485;22;20390;-84
2021/08/02 11:29:24;;;;;;;;;;;17.30;98.10;;;;;;6258399;22;20012;-84
2021/08/02 11:31:56;;;;;;;3.75;1.35;;;17.40;98.30;;;;;;6247886;22;20249;-84
2021/08/02 11:34:24;;;;;;;7.22;1.50;;;17.40;98.30;;;;;;6245832;22;20076;-85
2021/08/02 11:37:01;;;;;;;7.07;1.13;;;17.50;98.10;;;;;;6245781;22;20011;-83
2021/08/02 11:39:28;;;;;;;7.13;1.10;;;17.50;97.90;;;;;;6245640;22;20011;-85
2021/08/02 11:42:10;;;;;;;4.65;1.10;;;17.60;97.50;;;;;;6245620;22;20479;-82
2021/08/02 11:44:38;;;;;;;6.20;1.80;;;17.60;96.40;;;;;;6272794;22;20089;-86
2021/08/02 11:47:09;;;;;;;7.78;1.08;;;17.60;96.20;;;;;;6245586;22;20036;-84
2021/08/02 11:49:38;;;;;;;4.82;1.00;;;17.60;95.70;;;;;;6246466;22;20087;-85
2021/08/02 11:52:05;;;;;;;7.47;1.05;;;17.50;95.70;;;;;;6244861;22;20016;-85
2021/08/02 11:54:31;;;;;;;2.22;0.63;;;17.50;95.40;;;;;;6245881;22;20004;-85
2021/08/02 11:56:57;;;;;;;9.00;1.25;;;17.50;95.50;;;;;;6244978;22;20060;-84
2021/08/02 11:59:28;;;;;;;5.03;0.90;;;17.50;95.60;;;;;;6220444;22;20054;-83
2021/08/02 12:02:01;;;;;;;4.50;0.85;;;17.60;95.80;;;;;;6229654;22;20114;-84
2021/08/02 12:04:28;;;;;;;3.03;1.00;;;17.70;95.70;;;;;;6195032;22;20007;-86
2021/08/02 12:06:56;;;;;;;4.78;0.77;;;17.70;95.70;;;;;;6220722;22;20018;-85
2021/08/02 12:09:29;;;;;;;3.63;1.10;;;17.70;95.80;;;;;;6272428;22;20011;-85
2021/08/02 12:11:57;;;;;;;7.05;1.00;;;17.60;95.80;;;;;;6245268;22;20012;-84
2021/08/02 12:14:27;;;;;;;2.22;0.80;;;17.60;96.00;;;;;;6244456;22;20312;-84
2021/08/02 12:17:07;;;;;;;2.45;0.98;;;17.60;95.80;;;;;;6272005;22;20416;-85
2021/08/02 12:19:47;;;;;;;3.35;0.80;;;17.60;95.80;;;;;;6256525;22;20423;-85
2021/08/02 12:22:16;;;;;;;4.60;0.80;;;17.70;95.70;;;;;;6220929;22;20042;-83
2021/08/02 12:24:53;;;;;;;4.38;0.80;;;17.70;95.90;;;;;;6220143;22;20008;-82
2021/08/02 12:27:21;;;;;;;5.25;1.02;;;17.70;95.80;;;;;;6245826;22;20015;-81
2021/08/02 12:30:08;;;;;;;5.15;1.05;;;17.80;95.60;;;;;;6274704;22;20019;-84
2021/08/02 12:32:44;;;;;;;2.95;1.00;;;17.80;95.40;;;;;;6247666;22;20081;-84
2021/08/02 12:35:15;;;;;;;3.83;0.82;;;17.90;95.40;;;;;;6234727;22;20014;-83
2021/08/02 12:37:43;;;;;;;2.95;1.00;;;17.90;95.00;;;;;;6257537;22;20012;-84
2021/08/02 12:40:11;;;;;;;3.30;1.10;;;18.00;94.80;;;;;;6222132;22;20065;-82
2021/08/02 12:42:39;;;;;;;1.95;0.60;;;18.10;94.20;;;;;;6246816;22;20475;-84
2021/08/02 12:45:06;;;;;;;2.38;0.80;;;18.10;93.50;;;;;;6246825;22;20011;-83
2021/08/02 12:47:33;;;;;;;1.58;0.80;;;18.20;93.70;;;;;;6221871;22;20488;-82
2021/08/02 12:49:58;;;;;;;3.78;0.80;;;18.20;93.80;;;;;;6221213;22;20081;-83
2021/08/02 12:52:29;;;;;;;3.30;0.77;;;18.30;93.60;;;;;;6221245;22;20008;-84